Time;durP1;ratioP1;P1;durP2;ratioP2;P2;SDS_P1;SDS_P2;PMS_P1;PMS_P2;Temp;Humidity;BMP_temperature;BMP_pressure;BME280_temperature;BME280_humidity;BME280_pressure;Samples;Min_cycle;Max_cycle;Signal;HPM_P1;HPM_P2
2021/10/18 00:01:00;;;;;;;;;;;20.10;92.60;;;;;;5095538;28;19912;-72
2021/10/18 00:03:27;;;;;;;;;;;20.20;92.40;;;;;;5098472;28;19908;-71
2021/10/18 00:05:54;;;;;;;;;;;20.40;90.90;;;;;;5098926;28;19954;-72
2021/10/18 00:08:21;;;;;;;;;;;20.50;90.90;;;;;;5098662;28;20298;-72
2021/10/18 00:10:48;;;;;;;;;;;20.50;91.60;;;;;;5093779;28;20309;-71
2021/10/18 00:13:15;;;;;;;;;;;20.50;90.80;;;;;;5110899;28;20238;-74
2021/10/18 00:15:41;;;;;;;;;;;20.80;90.50;;;;;;5097397;28;19965;-73
2021/10/18 00:18:08;;;;;;;;;;;20.90;88.90;;;;;;5076473;28;19977;-73
2021/10/18 00:20:38;;;;;;;;;;;21.10;88.50;;;;;;5075712;28;19928;-74
2021/10/18 00:23:04;;;;;;;;;;;21.10;88.20;;;;;;5075722;28;20382;-73
2021/10/18 00:25:31;;;;;;;;;;;21.20;86.10;;;;;;5075554;28;19916;-71
2021/10/18 00:27:58;;;;;;;;;;;21.30;87.20;;;;;;5075678;28;19909;-72
2021/10/18 00:30:24;;;;;;;;;;;21.30;86.70;;;;;;5074904;28;19909;-72
2021/10/18 00:32:51;;;;;;;;;;;21.50;86.10;;;;;;5074833;28;19919;-73
2021/10/18 00:35:17;;;;;;;;;;;21.60;83.80;;;;;;5075339;28;20395;-73
2021/10/18 00:37:44;;;;;;;;;;;21.60;84.00;;;;;;5075195;28;19967;-73
2021/10/18 00:40:11;;;;;;;;;;;21.70;83.90;;;;;;5074706;28;19916;-72
2021/10/18 00:42:39;;;;;;;;;;;21.60;83.40;;;;;;5073323;28;19959;-71
2021/10/18 00:45:07;;;;;;;;;;;21.90;81.50;;;;;;5078071;28;20408;-73
2021/10/18 00:47:33;;;;;;;;;;;22.10;81.80;;;;;;5093163;28;20329;-72
2021/10/18 00:50:00;;;;;;;;;;;22.50;79.60;;;;;;5095627;28;20420;-71
2021/10/18 00:52:27;;;;;;;;;;;23.60;77.70;;;;;;5095677;28;19908;-71
2021/10/18 00:54:54;;;;;;;;;;;24.30;74.70;;;;;;5094850;28;19908;-71
2021/10/18 00:57:21;;;;;;;;;;;23.70;72.70;;;;;;5096391;28;19973;-71
2021/10/18 00:59:48;;;;;;;;;;;23.30;74.30;;;;;;5094282;28;20307;-71
2021/10/18 01:02:15;;;;;;;;;;;23.30;74.30;;;;;;5094501;28;19908;-72
2021/10/18 01:04:42;;;;;;;;;;;23.50;75.50;;;;;;5058183;28;19915;-71
2021/10/18 01:07:09;;;;;;;;;;;24.40;74.80;;;;;;5074886;28;20580;-71
2021/10/18 01:09:35;;;;;;;;;;;25.20;68.60;;;;;;5074168;28;19912;-72
2021/10/18 01:12:02;;;;;;;;;;;25.40;67.50;;;;;;5074715;28;19913;-71
2021/10/18 01:14:29;;;;;;;;;;;25.30;68.00;;;;;;5074800;28;19908;-71
2021/10/18 01:16:56;;;;;;;;;;;24.70;69.60;;;;;;5074606;28;19909;-71
2021/10/18 01:19:23;;;;;;;;;;;24.80;68.60;;;;;;5074235;28;20268;-71
2021/10/18 01:21:51;;;;;;;;;;;25.30;76.70;;;;;;5074345;28;20358;-72
2021/10/18 01:24:17;;;;;;;;;;;25.70;78.10;;;;;;5074376;28;19995;-72
2021/10/18 01:26:44;;;;;;;;;;;25.60;76.30;;;;;;5074497;28;19963;-72
2021/10/18 01:29:11;;;;;;;;;;;25.30;78.80;;;;;;5074028;28;19908;-72
2021/10/18 01:31:40;;;;;;;;;;;24.90;81.60;;;;;;5073976;28;19995;-72
2021/10/18 01:34:08;;;;;;;;;;;24.20;81.20;;;;;;5073866;28;19940;-72
2021/10/18 01:36:34;;;;;;;;;;;23.90;84.40;;;;;;5083562;28;19987;-71
2021/10/18 01:39:01;;;;;;;;;;;23.50;85.60;;;;;;5094411;28;19915;-71
2021/10/18 01:41:28;;;;;;;;;;;23.40;88.20;;;;;;5094106;28;20432;-71
2021/10/18 01:43:54;;;;;;;;;;;23.30;88.90;;;;;;5093680;28;19912;-71
2021/10/18 01:46:21;;;;;;;;;;;23.30;89.40;;;;;;5094207;28;19908;-73
2021/10/18 01:48:48;;;;;;;;;;;23.20;88.70;;;;;;5093923;28;19912;-71
2021/10/18 01:51:14;;;;;;;;;;;23.20;90.40;;;;;;5093317;28;19955;-71
2021/10/18 01:53:41;;;;;;;;;;;23.20;91.20;;;;;;5093892;28;19915;-71
2021/10/18 01:56:08;;;;;;;;;;;23.00;90.20;;;;;;5094063;28;19920;-71
2021/10/18 01:58:34;;;;;;;;;;;22.80;91.10;;;;;;5094156;28;19908;-72
2021/10/18 02:01:02;;;;;;;;;;;22.80;91.30;;;;;;5093316;28;19916;-72
2021/10/18 02:03:30;;;;;;;;;;;22.80;91.40;;;;;;5093705;28;20003;-72
2021/10/18 02:05:56;;;;;;;;;;;22.70;91.50;;;;;;5093937;28;19912;-73
2021/10/18 02:08:23;;;;;;;;;;;22.70;92.30;;;;;;5093887;28;19915;-71
2021/10/18 02:10:50;;;;;;;;;;;22.60;92.00;;;;;;5093670;28;20415;-70
2021/10/18 02:13:16;;;;;;;;;;;22.50;92.00;;;;;;5092371;28;20004;-71
2021/10/18 02:15:43;;;;;;;;;;;22.40;92.80;;;;;;5093484;28;19908;-71
2021/10/18 02:18:10;;;;;;;;;;;22.50;92.90;;;;;;5093743;28;20377;-71
2021/10/18 02:20:37;;;;;;;;;;;22.50;92.10;;;;;;5093737;28;19982;-71
2021/10/18 02:23:03;;;;;;;;;;;22.50;92.10;;;;;;5093259;28;19908;-71
2021/10/18 02:25:30;;;;;;;;;;;22.70;91.80;;;;;;5093526;28;19933;-71
2021/10/18 02:27:57;;;;;;;;;;;22.60;92.10;;;;;;5093095;28;20373;-71
2021/10/18 02:30:23;;;;;;;;;;;22.50;92.40;;;;;;5092777;28;19985;-71
2021/10/18 02:32:50;;;;;;;;;;;22.50;92.30;;;;;;5092774;28;19907;-71
2021/10/18 02:35:17;;;;;;;;;;;22.50;91.70;;;;;;5094220;28;19912;-70
2021/10/18 02:37:43;;;;;;;;;;;22.50;91.90;;;;;;5093621;28;19944;-72
2021/10/18 02:40:13;;;;;;;;;;;22.40;91.50;;;;;;5075448;28;19920;-71
2021/10/18 02:42:40;;;;;;;;;;;22.40;91.80;;;;;;5093128;28;19915;-71
2021/10/18 02:45:11;;;;;;;;;;;22.40;91.30;;;;;;5073506;28;19948;-72
2021/10/18 02:47:37;;;;;;;;;;;22.40;91.80;;;;;;5074622;28;19977;-71
2021/10/18 02:50:04;;;;;;;;;;;22.50;91.70;;;;;;5092847;28;19916;-72
2021/10/18 02:52:31;;;;;;;;;;;22.50;91.50;;;;;;5092774;28;19915;-72
2021/10/18 02:54:57;;;;;;;;;;;22.50;90.70;;;;;;5092951;28;19951;-71
2021/10/18 02:57:24;;;;;;;;;;;22.60;90.70;;;;;;5093017;28;19923;-72
2021/10/18 02:59:51;;;;;;;;;;;22.60;90.30;;;;;;5091729;28;19920;-71
2021/10/18 03:02:18;;;;;;;;;;;22.60;90.90;;;;;;5092754;28;19920;-71
2021/10/18 03:04:48;;;;;;;;;;;22.60;90.70;;;;;;5091867;28;20146;-71
2021/10/18 03:07:15;;;;;;;;;;;22.50;88.90;;;;;;5092753;28;19912;-71
2021/10/18 03:09:41;;;;;;;;;;;22.60;87.80;;;;;;5068586;28;19909;-72
2021/10/18 03:12:08;;;;;;;;;;;22.50;90.20;;;;;;5072072;28;20249;-70
2021/10/18 03:14:34;;;;;;;;;;;22.70;90.30;;;;;;5071770;28;19916;-71
2021/10/18 03:17:01;;;;;;;;;;;22.80;90.20;;;;;;5071936;28;20385;-71
2021/10/18 03:19:28;;;;;;;;;;;22.90;89.20;;;;;;5072493;28;19962;-70
2021/10/18 03:21:54;;;;;;;;;;;23.00;90.00;;;;;;5052025;28;19908;-70
2021/10/18 03:24:21;;;;;;;;;;;22.90;90.30;;;;;;5072396;28;19909;-72
2021/10/18 03:26:48;;;;;;;;;;;22.80;90.00;;;;;;5072436;28;19909;-72
2021/10/18 03:29:14;;;;;;;;;;;22.60;90.10;;;;;;5071619;28;19908;-71
2021/10/18 03:31:42;;;;;;;;;;;22.50;89.20;;;;;;5071834;28;20433;-71
2021/10/18 03:34:08;;;;;;;;;;;22.50;89.70;;;;;;5054309;28;19965;-71
2021/10/18 03:36:35;;;;;;;;;;;22.50;89.10;;;;;;5072424;28;20477;-71
2021/10/18 03:39:02;;;;;;;;;;;22.40;85.90;;;;;;5054303;28;19919;-71
2021/10/18 03:41:28;;;;;;;;;;;22.50;85.40;;;;;;5072067;28;19912;-71
2021/10/18 03:43:55;;;;;;;;;;;22.60;84.10;;;;;;5071892;28;20025;-70
2021/10/18 03:46:22;;;;;;;;;;;22.60;85.60;;;;;;5072357;28;19916;-72
2021/10/18 03:48:49;;;;;;;;;;;22.60;85.10;;;;;;5072162;28;20317;-71
2021/10/18 03:51:15;;;;;;;;;;;22.50;82.60;;;;;;5072154;28;19923;-72
2021/10/18 03:53:42;;;;;;;;;;;22.30;82.70;;;;;;5071897;28;19919;-72
2021/10/18 03:56:09;;;;;;;;;;;22.20;82.40;;;;;;5084620;28;19920;-72
2021/10/18 03:58:37;;;;;;;;;;;22.30;84.60;;;;;;5090615;28;19918;-72
2021/10/18 04:01:08;;;;;;;;;;;22.50;85.50;;;;;;5091580;28;20011;-72
2021/10/18 04:03:36;;;;;;;;;;;22.40;87.10;;;;;;5091835;28;19999;-71
2021/10/18 04:06:03;;;;;;;;;;;22.40;87.10;;;;;;5090947;28;19919;-71
2021/10/18 04:08:33;;;;;;;;;;;22.30;88.10;;;;;;5092238;28;19976;-71
2021/10/18 04:11:00;;;;;;;;;;;22.40;87.50;;;;;;5093655;28;19920;-71
2021/10/18 04:13:27;;;;;;;;;;;22.30;88.50;;;;;;5093598;28;19912;-72
2021/10/18 04:15:54;;;;;;;;;;;22.30;90.30;;;;;;5090737;28;19908;-72
2021/10/18 04:18:21;;;;;;;;;;;22.20;89.50;;;;;;5092148;28;19916;-72
2021/10/18 04:20:48;;;;;;;;;;;22.20;91.70;;;;;;5091715;28;19919;-71
2021/10/18 04:23:15;;;;;;;;;;;22.10;92.50;;;;;;5091687;28;19908;-70
2021/10/18 04:25:42;;;;;;;;;;;22.10;93.70;;;;;;5090644;28;20007;-71
2021/10/18 04:28:09;;;;;;;;;;;22.10;95.00;;;;;;5091990;28;19908;-71
2021/10/18 04:30:35;;;;;;;;;;;22.00;95.10;;;;;;5091585;28;19915;-72
2021/10/18 04:33:02;;;;;;;;;;;21.80;95.90;;;;;;5091857;28;19912;-72
2021/10/18 04:35:32;;;;;;;;;;;21.60;96.10;;;;;;5091752;28;20002;-71
2021/10/18 04:37:59;;;;;;;;;;;21.60;95.30;;;;;;5093155;28;19908;-72
2021/10/18 04:40:26;;;;;;;;;;;21.60;95.70;;;;;;5095251;28;19981;-72
2021/10/18 04:42:52;;;;;;;;;;;21.60;96.60;;;;;;5095073;28;19965;-70
2021/10/18 04:45:19;;;;;;;;;;;21.50;96.20;;;;;;5095246;28;19908;-70
2021/10/18 04:47:48;;;;;;;;;;;21.40;96.60;;;;;;5095210;28;20259;-72
2021/10/18 04:50:15;;;;;;;;;;;21.30;96.90;;;;;;5095228;28;19918;-72
2021/10/18 04:52:42;;;;;;;;;;;21.30;97.50;;;;;;5094742;28;19908;-71
2021/10/18 04:55:09;;;;;;;;;;;21.20;98.00;;;;;;5095029;28;19924;-72
2021/10/18 04:57:47;;;;;;;;;;;21.20;97.30;;;;;;5095113;28;20367;-73
2021/10/18 05:00:14;;;;;;;;;;;21.30;98.40;;;;;;5094656;28;19920;-72
2021/10/18 05:02:40;;;;;;;;;;;21.40;97.90;;;;;;5094607;28;19990;-72
2021/10/18 05:05:07;;;;;;;;;;;21.20;98.50;;;;;;5094842;28;20018;-72
2021/10/18 05:07:34;;;;;;;;;;;21.30;98.40;;;;;;5094984;28;19935;-72
2021/10/18 05:10:01;;;;;;;;;;;21.30;98.00;;;;;;5095062;28;19909;-72
2021/10/18 05:12:28;;;;;;;;;;;21.20;97.90;;;;;;5094351;28;20279;-71
2021/10/18 05:14:55;;;;;;;;;;;21.20;96.70;;;;;;5095186;28;19908;-71
2021/10/18 05:17:21;;;;;;;;;;;21.10;96.80;;;;;;5094639;28;19915;-72
2021/10/18 05:19:50;;;;;;;;;;;21.10;97.50;;;;;;5094434;28;19923;-71
2021/10/18 05:22:16;;;;;;;;;;;21.20;97.50;;;;;;5094474;28;19908;-71
2021/10/18 05:24:43;;;;;;;;;;;21.20;97.00;;;;;;5094435;28;20510;-72
2021/10/18 05:27:10;;;;;;;;;;;21.10;97.10;;;;;;5094323;28;19980;-72
2021/10/18 05:29:37;;;;;;;;;;;21.10;98.20;;;;;;5093391;28;19920;-72
2021/10/18 05:32:05;;;;;;;;;;;21.00;98.20;;;;;;5092351;28;19969;-71
2021/10/18 05:34:31;;;;;;;;;;;21.00;97.80;;;;;;5094193;28;19908;-70
2021/10/18 05:36:58;;;;;;;;;;;21.00;98.30;;;;;;5090830;28;19915;-70
2021/10/18 05:39:25;;;;;;;;;;;21.00;97.80;;;;;;5093383;28;20351;-71
2021/10/18 05:41:51;;;;;;;;;;;21.10;97.20;;;;;;5089765;28;19913;-72
2021/10/18 05:44:18;;;;;;;;;;;21.00;96.00;;;;;;5094166;28;20419;-72
2021/10/18 05:46:45;;;;;;;;;;;21.00;96.30;;;;;;5093642;28;19912;-70
2021/10/18 05:49:13;;;;;;;;;;;21.00;95.50;;;;;;5091309;28;19912;-70
2021/10/18 05:51:41;;;;;;;;;;;21.10;95.70;;;;;;5092522;28;20346;-71
2021/10/18 05:54:08;;;;;;;;;;;21.10;96.10;;;;;;5091822;28;19912;-71
2021/10/18 05:56:34;;;;;;;;;;;21.00;96.30;;;;;;5091656;28;20015;-71
2021/10/18 05:59:01;;;;;;;;;;;21.00;96.50;;;;;;5091298;28;19948;-70
2021/10/18 06:01:28;;;;;;;;;;;21.00;94.30;;;;;;5091926;28;20366;-71
2021/10/18 06:03:54;;;;;;;;;;;20.90;94.80;;;;;;5091210;28;20358;-72
2021/10/18 06:06:22;;;;;;;;;;;20.90;95.30;;;;;;5092570;28;19908;-72
2021/10/18 06:08:49;;;;;;;;;;;20.90;95.30;;;;;;5093350;28;19912;-72
2021/10/18 06:11:16;;;;;;;;;;;20.90;95.70;;;;;;5092282;28;20067;-70
2021/10/18 06:13:43;;;;;;;;;;;20.80;96.10;;;;;;5089457;28;19996;-71
2021/10/18 06:16:10;;;;;;;;;;;20.70;96.10;;;;;;5092146;28;19919;-71
2021/10/18 06:18:37;;;;;;;;;;;20.80;95.10;;;;;;5092288;28;19940;-71
2021/10/18 06:21:03;;;;;;;;;;;20.80;95.30;;;;;;5092944;28;20359;-73
2021/10/18 06:23:30;;;;;;;;;;;20.70;94.50;;;;;;5092141;28;19909;-70
2021/10/18 06:25:57;;;;;;;;;;;20.70;95.10;;;;;;5092212;28;19916;-72
2021/10/18 06:28:23;;;;;;;;;;;20.80;95.10;;;;;;5092168;28;20326;-72
2021/10/18 06:30:50;;;;;;;;;;;20.80;94.90;;;;;;5089445;28;20353;-71
2021/10/18 06:33:20;;;;;;;;;;;20.80;95.20;;;;;;5091059;28;20279;-72
2021/10/18 06:35:47;;;;;;;;;;;20.70;95.20;;;;;;5091214;28;19912;-71
2021/10/18 06:38:16;;;;;;;;;;;20.70;95.40;;;;;;5091360;28;19912;-72
2021/10/18 06:40:43;;;;;;;;;;;20.70;95.90;;;;;;5091223;28;19926;-70
2021/10/18 06:43:10;;;;;;;;;;;20.60;96.40;;;;;;5090324;28;19912;-72
2021/10/18 06:45:37;;;;;;;;;;;20.60;96.20;;;;;;5089534;28;19915;-70
2021/10/18 06:48:04;;;;;;;;;;;20.50;97.00;;;;;;5090871;28;19953;-71
2021/10/18 06:50:32;;;;;;;;;;;20.50;97.50;;;;;;5090860;28;20423;-71
2021/10/18 06:52:59;;;;;;;;;;;20.60;98.00;;;;;;5090351;28;19912;-71
2021/10/18 06:55:27;;;;;;;;;;;20.50;97.70;;;;;;5090781;28;19924;-71
2021/10/18 06:57:56;;;;;;;;;;;20.50;98.20;;;;;;5090162;28;20348;-70
2021/10/18 07:00:22;;;;;;;;;;;20.40;98.40;;;;;;5090029;28;19927;-70
2021/10/18 07:02:49;;;;;;;;;;;20.40;99.10;;;;;;5089354;28;20224;-70
2021/10/18 07:05:16;;;;;;;;;;;20.40;97.80;;;;;;5091084;28;19908;-71
2021/10/18 07:07:43;;;;;;;;;;;20.30;98.70;;;;;;5090713;28;20001;-71
2021/10/18 07:10:10;;;;;;;;;;;20.30;99.40;;;;;;5090466;28;19908;-71
2021/10/18 07:12:36;;;;;;;;;;;20.20;99.50;;;;;;5090928;28;20338;-70
2021/10/18 07:15:04;;;;;;;;;;;20.20;99.90;;;;;;5090945;28;20027;-70
2021/10/18 07:17:35;;;;;;;;;;;20.30;99.90;;;;;;5091076;28;19909;-72
2021/10/18 07:20:03;;;;;;;;;;;20.30;99.90;;;;;;5091583;28;20248;-72
2021/10/18 07:22:35;;;;;;;;;;;20.20;99.90;;;;;;5089984;28;20358;-71
2021/10/18 07:25:02;;;;;;;;;;;20.20;99.90;;;;;;5091477;28;19908;-70
2021/10/18 07:27:29;;;;;;;;;;;20.20;99.90;;;;;;5090374;28;19962;-71
2021/10/18 07:29:56;;;;;;;;;;;20.10;99.90;;;;;;5090386;28;19965;-71
2021/10/18 07:32:24;;;;;;;;;;;20.10;99.90;;;;;;5090576;28;19981;-72
2021/10/18 07:34:51;;;;;;;;;;;20.00;99.90;;;;;;5090207;28;19912;-71
2021/10/18 07:37:25;;;;;;;;;;;20.00;99.90;;;;;;5090161;28;19999;-72
2021/10/18 07:39:52;;;;;;;;;;;20.00;99.90;;;;;;5089091;28;19920;-73
2021/10/18 07:42:18;;;;;;;;;;;20.00;99.90;;;;;;5090448;28;19931;-72
2021/10/18 07:44:45;;;;;;;;;;;20.00;99.90;;;;;;5090415;28;20349;-70
2021/10/18 07:47:15;;;;;;;;;;;19.90;99.90;;;;;;5088654;28;19909;-71
2021/10/18 07:49:42;;;;;;;;;;;19.90;99.90;;;;;;5089658;28;19919;-73
2021/10/18 07:52:11;;;;;;;;;;;19.80;99.90;;;;;;5090515;28;19969;-72
2021/10/18 07:54:42;;;;;;;;;;;19.70;99.90;;;;;;5090661;28;20367;-72
2021/10/18 07:57:10;;;;;;;;;;;19.70;99.90;;;;;;5090517;28;20440;-71
2021/10/18 07:59:37;;;;;;;;;;;19.70;99.90;;;;;;5088361;28;19941;-71
2021/10/18 08:02:04;;;;;;;;;;;19.60;99.90;;;;;;5088285;28;19962;-72
2021/10/18 08:04:30;;;;;;;;;;;19.60;99.90;;;;;;5090140;28;19955;-70
2021/10/18 08:06:57;;;;;;;;;;;19.50;99.90;;;;;;5092527;28;19908;-70
2021/10/18 08:09:25;;;;;;;;;;;19.50;99.90;;;;;;5092339;28;19908;-74
2021/10/18 08:11:53;;;;;;;;;;;19.50;99.90;;;;;;5092333;28;19912;-71
2021/10/18 08:14:20;;;;;;;;;;;19.50;99.90;;;;;;5096372;28;19916;-72
2021/10/18 08:16:46;;;;;;;;;;;19.50;99.90;;;;;;5096411;28;19947;-71
2021/10/18 08:19:13;;;;;;;;;;;19.50;99.90;;;;;;5094716;28;19916;-73
2021/10/18 08:21:40;;;;;;;;;;;19.40;99.90;;;;;;5095896;28;19998;-71
2021/10/18 08:24:07;;;;;;;;;;;19.40;99.90;;;;;;5095488;28;19915;-72
2021/10/18 08:26:33;;;;;;;;;;;19.30;99.90;;;;;;5095816;28;19916;-71
2021/10/18 08:29:00;;;;;;;;;;;19.30;99.90;;;;;;5095239;28;20013;-70
2021/10/18 08:31:27;;;;;;;;;;;19.30;99.90;;;;;;5095662;28;19914;-74
2021/10/18 08:33:53;;;;;;;;;;;19.30;99.90;;;;;;5095324;28;19908;-70
2021/10/18 08:36:20;;;;;;;;;;;19.30;99.90;;;;;;5096737;28;19908;-73
2021/10/18 08:38:47;;;;;;;;;;;19.30;99.90;;;;;;5097165;28;19908;-71
2021/10/18 08:46:09;;;;;;;;;;;19.20;99.90;;;;;;5096882;28;19952;-73
2021/10/18 08:48:36;;;;;;;;;;;19.10;99.90;;;;;;5097490;28;20362;-72
2021/10/18 08:51:02;;;;;;;;;;;19.20;99.90;;;;;;5097535;28;19912;-72
2021/10/18 08:53:29;;;;;;;;;;;19.10;99.90;;;;;;5095412;28;19959;-71
2021/10/18 08:55:56;;;;;;;;;;;19.20;99.90;;;;;;5095617;28;19941;-70
2021/10/18 08:58:22;;;;;;;;;;;19.20;99.90;;;;;;5096241;28;19912;-72
2021/10/18 09:00:53;;;;;;;;;;;19.20;99.90;;;;;;5094726;28;19923;-73
2021/10/18 09:03:28;;;;;;;;;;;19.20;99.90;;;;;;5095379;28;19908;-71
2021/10/18 09:06:15;;;;;;;;;;;19.20;99.90;;;;;;5095240;28;19912;-72
2021/10/18 09:08:51;;;;;;;;;;;19.20;99.90;;;;;;5095247;28;19912;-71
2021/10/18 09:11:18;;;;;;;;;;;19.20;99.90;;;;;;5094464;28;20295;-72
2021/10/18 09:13:51;;;;;;;;;;;19.20;99.90;;;;;;5086760;28;20290;-71
2021/10/18 09:16:28;;;;;;;;;;;19.20;99.90;;;;;;5074432;28;19908;-70
2021/10/18 09:19:05;;;;;;;;;;;19.20;99.90;;;;;;5074511;28;19908;-72
2021/10/18 09:21:40;;;;;;;;;;;19.20;99.90;;;;;;5106810;28;20276;-72
2021/10/18 09:24:08;;;;;;;;;;;19.10;99.90;;;;;;5074384;28;19915;-72
2021/10/18 09:26:35;;;;;;;;;;;19.10;99.90;;;;;;5074577;28;19909;-73
2021/10/18 09:29:13;;;;;;;;;;;19.10;99.90;;;;;;5074519;28;19908;-71
2021/10/18 09:31:41;;;;;;;;;;;19.10;99.90;;;;;;5074464;28;19912;-71
2021/10/18 09:34:18;;;;;;;;;;;19.10;99.90;;;;;;5076339;28;19915;-71
2021/10/18 09:36:45;;;;;;;;;;;19.10;99.90;;;;;;5076201;28;20097;-71
2021/10/18 09:39:14;;;;;;;;;;;19.10;99.90;;;;;;5075713;28;19909;-71
2021/10/18 09:41:44;;;;;;;;;;;19.20;99.90;;;;;;5074842;28;20359;-71
2021/10/18 09:44:22;;;;;;;;;;;19.20;99.90;;;;;;5074439;28;19912;-73
2021/10/18 09:47:32;;;;;;;;;;;19.20;99.90;;;;;;5085996;28;19908;-73
2021/10/18 10:55:46;;;;;;;;;;;19.00;99.90;;;;;;5093009;28;19920;-71
2021/10/18 10:58:54;;;;;;;;;;;19.00;99.90;;;;;;5092857;28;20012;-71
2021/10/18 11:01:52;;;;;;;;;;;19.10;99.90;;;;;;5087429;28;19939;-71
2021/10/18 11:04:31;;;;;;;;;;;19.10;99.90;;;;;;5070008;28;19908;-72
2021/10/18 11:06:59;;;;;;;;;;;19.10;99.90;;;;;;5093304;28;19908;-72
2021/10/18 11:09:38;;;;;;;;;;;19.10;99.90;;;;;;5092564;28;19948;-72
2021/10/18 11:12:06;;;;;;;;;;;19.10;99.90;;;;;;5092925;28;19908;-71
2021/10/18 11:14:33;;;;;;;;;;;19.00;99.90;;;;;;5092317;28;19955;-71
2021/10/18 11:16:59;;;;;;;;;;;19.00;99.90;;;;;;5092996;28;19908;-73
2021/10/18 11:19:26;;;;;;;;;;;19.00;99.90;;;;;;5092657;28;19912;-72
2021/10/18 11:21:57;;;;;;;;;;;19.00;99.90;;;;;;5092394;28;19923;-71
2021/10/18 11:24:23;;;;;;;;;;;18.90;99.90;;;;;;5091439;28;19908;-71
2021/10/18 11:26:56;;;;;;;;;;;18.90;99.90;;;;;;5092797;28;19908;-72
2021/10/18 11:29:30;;;;;;;;;;;18.80;99.90;;;;;;5092458;28;19956;-72
2021/10/18 11:32:05;;;;;;;;;;;18.80;99.90;;;;;;5092755;28;19908;-72
2021/10/18 11:34:31;;;;;;;;;;;18.80;99.90;;;;;;5091219;28;20384;-72
2021/10/18 11:36:58;;;;;;;;;;;18.70;99.90;;;;;;5092649;28;20006;-71
2021/10/18 11:39:27;;;;;;;;;;;18.70;99.90;;;;;;5092556;28;19915;-72
2021/10/18 11:41:59;;;;;;;;;;;18.70;99.90;;;;;;5092424;28;19940;-73
2021/10/18 11:44:41;;;;;;;;;;;18.70;99.90;;;;;;5092035;28;19908;-73
2021/10/18 11:47:40;;;;;;;;;;;18.60;99.90;;;;;;5091277;28;19912;-73
2021/10/18 11:50:17;;;;;;;;;;;18.70;99.90;;;;;;5069367;28;19908;-72
2021/10/18 11:52:46;;;;;;;;;;;18.70;99.90;;;;;;5092148;28;19912;-73
2021/10/18 11:55:17;;;;;;;;;;;18.70;99.90;;;;;;5092022;28;19912;-72
2021/10/18 11:57:44;;;;;;;;;;;18.70;99.90;;;;;;5091877;28;19923;-71
2021/10/18 12:00:19;;;;;;;;;;;18.70;99.90;;;;;;5091003;28;19916;-72
2021/10/18 12:02:45;;;;;;;;;;;18.70;99.90;;;;;;5091766;28;20355;-71
2021/10/18 12:05:13;;;;;;;;;;;18.70;99.90;;;;;;5093551;28;20005;-71
2021/10/18 12:07:41;;;;;;;;;;;18.70;99.90;;;;;;5095794;28;19908;-71
2021/10/18 12:10:27;;;;;;;;;;;18.70;99.90;;;;;;5096363;28;20327;-73
2021/10/18 12:13:03;;;;;;;;;;;18.70;99.90;;;;;;5091703;28;19916;-72
2021/10/18 12:15:30;;;;;;;;;;;18.70;99.90;;;;;;5092325;28;20405;-72
2021/10/18 12:17:57;;;;;;;;;;;18.70;99.90;;;;;;5092207;28;19908;-72
2021/10/18 12:20:24;;;;;;;;;;;18.70;99.90;;;;;;5090870;28;19966;-73
2021/10/18 12:23:09;;;;;;;;;;;18.70;99.90;;;;;;5091905;28;19915;-72
2021/10/18 12:25:38;;;;;;;;;;;18.70;99.90;;;;;;5091810;28;19950;-72
2021/10/18 12:28:23;;;;;;;;;;;18.70;99.90;;;;;;5091698;28;19995;-73
2021/10/18 12:30:50;;;;;;;;;;;18.70;99.90;;;;;;5090703;28;20008;-72
2021/10/18 12:33:16;;;;;;;;;;;18.70;99.90;;;;;;5091633;28;19952;-71
2021/10/18 12:35:55;;;;;;;;;;;18.70;99.90;;;;;;5091848;28;19943;-72
2021/10/18 12:38:24;;;;;;;;;;;18.60;99.90;;;;;;5091926;28;19969;-72
2021/10/18 12:40:51;;;;;;;;;;;18.60;99.90;;;;;;5091765;28;20459;-72
2021/10/18 12:43:27;;;;;;;;;;;18.60;99.90;;;;;;5091657;28;20409;-70
2021/10/18 12:45:54;;;;;;;;;;;18.50;99.90;;;;;;5091540;28;19912;-70
2021/10/18 12:48:24;;;;;;;;;;;18.50;99.90;;;;;;5091885;28;19908;-71
2021/10/18 12:50:51;;;;;;;;;;;18.50;99.90;;;;;;5092012;28;19915;-71
2021/10/18 12:53:33;;;;;;;;;;;18.40;99.90;;;;;;5091413;28;19999;-70
2021/10/18 12:56:00;;;;;;;;;;;18.40;99.90;;;;;;5091639;28;20014;-70
2021/10/18 12:58:32;;;;;;;;;;;18.40;99.90;;;;;;5094142;28;19961;-70
2021/10/18 13:00:59;;;;;;;;;;;18.40;99.90;;;;;;5095350;28;19955;-71
2021/10/18 13:03:26;;;;;;;;;;;18.40;99.90;;;;;;5093740;28;19962;-70
2021/10/18 13:05:57;;;;;;;;;;;18.40;99.90;;;;;;5095250;28;20367;-71
2021/10/18 13:08:24;;;;;;;;;;;18.40;99.90;;;;;;5095366;28;19918;-71
2021/10/18 13:10:52;;;;;;;;;;;18.30;99.90;;;;;;5095112;28;19908;-70
2021/10/18 13:13:21;;;;;;;;;;;18.30;99.90;;;;;;5094903;28;19962;-73
2021/10/18 13:15:49;;;;;;;;;;;18.20;99.90;;;;;;5090724;28;20323;-71
2021/10/18 13:18:16;;;;;;;;;;;18.20;99.90;;;;;;5093514;28;20427;-71
2021/10/18 13:20:43;;;;;;;;;;;18.10;99.90;;;;;;5093635;28;19927;-72
2021/10/18 13:23:10;;;;;;;;;;;18.10;99.90;;;;;;5094893;28;19912;-71
2021/10/18 13:25:38;;;;;;;;;;;18.20;99.90;;;;;;5093022;28;19910;-73
2021/10/18 13:28:06;;;;;;;;;;;18.20;99.90;;;;;;5093606;28;19912;-73
2021/10/18 13:30:33;;;;;;;;;;;18.10;99.90;;;;;;5093319;28;20397;-70
2021/10/18 13:33:00;;;;;;;;;;;18.10;99.90;;;;;;5090432;28;20381;-73
2021/10/18 13:35:28;;;;;;;;;;;18.10;99.90;;;;;;5093324;28;20263;-73
2021/10/18 13:37:55;;;;;;;;;;;18.20;99.90;;;;;;5091573;28;20722;-73
2021/10/18 13:40:24;;;;;;;;;;;18.20;99.90;;;;;;5093153;28;19922;-71
2021/10/18 13:42:51;;;;;;;;;;;18.20;99.90;;;;;;5094797;28;20006;-72
2021/10/18 13:45:18;;;;;;;;;;;18.20;99.90;;;;;;5097274;28;19908;-73
2021/10/18 13:47:46;;;;;;;;;;;18.20;99.90;;;;;;5094465;28;20283;-73
2021/10/18 13:50:13;;;;;;;;;;;18.10;99.90;;;;;;5093984;28;20002;-74
2021/10/18 13:52:39;;;;;;;;;;;18.10;99.90;;;;;;5094064;28;19908;-74
2021/10/18 13:55:06;;;;;;;;;;;18.10;99.90;;;;;;5094277;28;19935;-73
2021/10/18 13:57:34;;;;;;;;;;;18.00;99.90;;;;;;5094385;28;19919;-73
2021/10/18 14:00:01;;;;;;;;;;;18.00;99.90;;;;;;5094545;28;19919;-73
2021/10/18 14:02:27;;;;;;;;;;;18.10;99.90;;;;;;5094311;28;19908;-74
2021/10/18 14:04:56;;;;;;;;;;;18.10;99.90;;;;;;5094541;28;19956;-73
2021/10/18 14:07:22;;;;;;;;;;;18.10;99.90;;;;;;5094319;28;20406;-72
2021/10/18 14:09:49;;;;;;;;;;;18.20;99.90;;;;;;5092934;28;19908;-73
2021/10/18 14:12:16;;;;;;;;;;;18.20;99.90;;;;;;5092925;28;20329;-73
2021/10/18 14:14:42;;;;;;;;;;;18.10;99.90;;;;;;5094277;28;19912;-73
2021/10/18 14:17:09;;;;;;;;;;;18.10;99.90;;;;;;5094241;28;20374;-74
2021/10/18 14:19:36;;;;;;;;;;;18.10;99.90;;;;;;5093808;28;19912;-73
2021/10/18 14:22:04;;;;;;;;;;;18.10;99.90;;;;;;5093579;28;19909;-74
2021/10/18 14:24:32;;;;;;;;;;;18.00;99.90;;;;;;5093939;28;19962;-74
2021/10/18 14:27:00;;;;;;;;;;;18.00;99.90;;;;;;5093870;28;19908;-74
2021/10/18 14:29:27;;;;;;;;;;;17.90;99.90;;;;;;5093828;28;19908;-74
2021/10/18 14:31:54;;;;;;;;;;;17.90;99.90;;;;;;5093868;28;20351;-75
2021/10/18 14:34:22;;;;;;;;;;;17.90;99.90;;;;;;5093991;28;19916;-73
2021/10/18 14:36:49;;;;;;;;;;;17.80;99.90;;;;;;5093705;28;19908;-74
2021/10/18 14:39:16;;;;;;;;;;;17.90;99.90;;;;;;5092032;28;20382;-73
2021/10/18 14:41:43;;;;;;;;;;;17.90;99.90;;;;;;5093550;28;20397;-73
2021/10/18 14:44:11;;;;;;;;;;;17.90;99.90;;;;;;5093581;28;19919;-73
2021/10/18 14:46:37;;;;;;;;;;;17.90;99.90;;;;;;5093688;28;19916;-74
2021/10/18 14:49:04;;;;;;;;;;;17.90;99.90;;;;;;5093506;28;19908;-73
2021/10/18 14:51:31;;;;;;;;;;;17.90;99.90;;;;;;5093382;28;19914;-74
2021/10/18 14:53:59;;;;;;;;;;;17.90;99.90;;;;;;5093479;28;19952;-74
2021/10/18 14:56:26;;;;;;;;;;;17.90;99.90;;;;;;5093261;28;19924;-73
2021/10/18 14:58:54;;;;;;;;;;;17.90;99.90;;;;;;5093273;28;20343;-73
2021/10/18 15:01:22;;;;;;;;;;;17.80;99.90;;;;;;5093341;28;20010;-72
2021/10/18 15:03:51;;;;;;;;;;;17.80;99.90;;;;;;5092928;28;19908;-74
2021/10/18 15:06:17;;;;;;;;;;;17.80;99.90;;;;;;5093205;28;20282;-74
2021/10/18 15:08:44;;;;;;;;;;;17.80;99.90;;;;;;5093190;28;19909;-73
2021/10/18 15:11:11;;;;;;;;;;;17.80;99.90;;;;;;5093053;28;19908;-73
2021/10/18 15:13:39;;;;;;;;;;;17.70;99.90;;;;;;5093078;28;19908;-74
2021/10/18 15:16:06;;;;;;;;;;;17.70;99.90;;;;;;5093029;28;19931;-73
2021/10/18 15:18:32;;;;;;;;;;;17.60;99.90;;;;;;5093161;28;19908;-73
2021/10/18 15:21:01;;;;;;;;;;;17.60;99.90;;;;;;5093663;28;19934;-71
2021/10/18 15:23:27;;;;;;;;;;;17.40;99.90;;;;;;5093706;28;20355;-73
2021/10/18 15:25:54;;;;;;;;;;;17.30;99.90;;;;;;5092675;28;19908;-74
2021/10/18 15:28:21;;;;;;;;;;;17.20;99.90;;;;;;5092834;28;20007;-74
2021/10/18 15:30:48;;;;;;;;;;;17.20;99.90;;;;;;5092933;28;19908;-74
2021/10/18 15:33:14;;;;;;;;;;;17.10;99.90;;;;;;5092865;28;20351;-74